Time;durP1;ratioP1;P1;durP2;ratioP2;P2;SDS_P1;SDS_P2;PMS_P1;PMS_P2;Temp;Humidity;BMP_temperature;BMP_pressure;BME280_temperature;BME280_humidity;BME280_pressure;Samples;Min_cycle;Max_cycle;Signal;HPM_P1;HPM_P2
2021/09/18 00:00:46;;;;;;;115.18;15.02;;;29.40;90.50;;;;;;5044604;28;20029;-46
2021/09/18 00:03:13;;;;;;;100.03;14.38;;;29.40;90.50;;;;;;5044434;28;20018;-50
2021/09/18 00:05:40;;;;;;;86.15;13.02;;;29.40;90.20;;;;;;5044293;28;20017;-48
2021/09/18 00:08:07;;;;;;;96.10;12.50;;;29.30;90.20;;;;;;5044319;28;20044;-50
2021/09/18 00:10:33;;;;;;;83.93;11.75;;;29.40;90.20;;;;;;5044232;28;20017;-48
2021/09/18 00:13:00;;;;;;;55.42;9.38;;;29.30;90.10;;;;;;5044480;28;20021;-53
2021/09/18 00:15:30;;;;;;;56.47;8.60;;;29.30;90.00;;;;;;5044150;28;20017;-45
2021/09/18 00:17:58;;;;;;;45.28;7.53;;;29.30;89.90;;;;;;5044360;28;20314;-48
2021/09/18 00:20:25;;;;;;;45.90;8.15;;;29.30;90.10;;;;;;5044113;28;20021;-46
2021/09/18 00:22:51;;;;;;;28.95;8.35;;;29.30;90.00;;;;;;5042938;28;20082;-46
2021/09/18 00:25:18;;;;;;;35.08;7.93;;;29.30;90.00;;;;;;5043906;28;20029;-52
2021/09/18 00:27:44;;;;;;;25.42;5.95;;;29.30;90.00;;;;;;5044494;28;20040;-46
2021/09/18 00:30:11;;;;;;;18.60;5.45;;;29.20;90.20;;;;;;5044043;28;20328;-49
2021/09/18 00:32:38;;;;;;;19.95;5.53;;;29.20;90.30;;;;;;5044509;28;20036;-49
2021/09/18 00:35:05;;;;;;;18.80;8.38;;;29.20;90.30;;;;;;5043877;28;20027;-49
2021/09/18 00:37:32;;;;;;;17.38;10.32;;;29.10;90.40;;;;;;5044313;28;20092;-45
2021/09/18 00:39:59;;;;;;;22.02;9.07;;;29.10;90.50;;;;;;5043999;28;20124;-49
2021/09/18 00:42:26;;;;;;;26.10;12.88;;;29.10;90.60;;;;;;5043518;28;20025;-50
2021/09/18 00:44:53;;;;;;;17.45;8.80;;;29.10;90.50;;;;;;5043718;28;20021;-50
2021/09/18 00:47:20;;;;;;;19.50;7.78;;;29.10;90.50;;;;;;5043997;28;20041;-49
2021/09/18 00:49:46;;;;;;;12.63;6.78;;;29.10;90.50;;;;;;5043631;28;20085;-49
2021/09/18 00:52:18;;;;;;;9.45;6.43;;;29.10;90.60;;;;;;5043653;28;20057;-51
2021/09/18 00:54:48;;;;;;;;;;;29.10;90.50;;;;;;5044076;28;20032;-48
2021/09/18 00:57:16;;;;;;;9.82;5.57;;;29.10;90.40;;;;;;5044140;28;19920;-50
2021/09/18 00:59:43;;;;;;;9.88;5.68;;;29.00;90.50;;;;;;5043672;28;20021;-53
2021/09/18 01:02:11;;;;;;;8.20;5.07;;;29.00;90.40;;;;;;5043772;28;20025;-50
2021/09/18 01:04:39;;;;;;;10.00;5.30;;;29.10;90.20;;;;;;5043561;28;20264;-48
2021/09/18 01:07:07;;;;;;;15.52;5.10;;;29.00;90.10;;;;;;5043502;28;20248;-49
2021/09/18 01:09:34;;;;;;;29.65;7.68;;;28.90;89.80;;;;;;5043219;28;20107;-51
2021/09/18 01:12:04;;;;;;;31.00;6.80;;;29.00;89.60;;;;;;5044103;28;20061;-51
2021/09/18 01:14:31;;;;;;;23.67;6.57;;;29.00;89.60;;;;;;5043636;28;20017;-47
2021/09/18 01:16:58;;;;;;;16.50;5.78;;;29.00;89.30;;;;;;5043647;28;20041;-47
2021/09/18 01:19:25;;;;;;;15.00;6.70;;;29.10;89.00;;;;;;5043602;28;20009;-46
2021/09/18 01:21:52;;;;;;;13.15;5.82;;;29.10;88.90;;;;;;5043817;28;20032;-46
2021/09/18 01:24:19;;;;;;;13.40;6.03;;;29.10;89.00;;;;;;5043392;28;20025;-46
2021/09/18 01:26:47;;;;;;;12.57;5.20;;;29.10;89.30;;;;;;5043699;28;20303;-45
2021/09/18 01:29:14;;;;;;;7.55;5.82;;;29.00;89.40;;;;;;5043465;28;20029;-47
2021/09/18 01:31:49;;;;;;;11.95;6.38;;;29.00;89.50;;;;;;5043562;28;20025;-50
2021/09/18 01:34:21;;;;;;;13.27;5.68;;;29.10;89.50;;;;;;5043389;28;20029;-49
2021/09/18 01:36:50;;;;;;;9.02;5.43;;;29.10;89.60;;;;;;5043160;28;20030;-48
2021/09/18 01:39:18;;;;;;;10.20;5.65;;;29.10;89.60;;;;;;5043547;28;20280;-46
2021/09/18 01:41:47;;;;;;;12.75;6.55;;;29.10;89.70;;;;;;5043543;28;20017;-47
2021/09/18 01:44:16;;;;;;;19.20;7.00;;;29.10;89.60;;;;;;5043244;28;20088;-48
2021/09/18 01:46:43;;;;;;;53.53;11.07;;;29.10;89.70;;;;;;5043569;28;20092;-47
2021/09/18 01:49:18;;;;;;;76.57;12.30;;;29.00;89.70;;;;;;5043189;28;20033;-51
2021/09/18 01:51:59;;;;;;;44.63;9.60;;;29.00;89.80;;;;;;5043252;28;20021;-50
2021/09/18 01:54:28;;;;;;;59.10;10.10;;;29.00;89.90;;;;;;5044746;28;20222;-45
2021/09/18 01:56:55;;;;;;;70.32;11.68;;;29.00;90.00;;;;;;5046485;28;20041;-50
2021/09/18 01:59:21;;;;;;;62.05;8.90;;;28.90;90.10;;;;;;5046927;28;20080;-47
2021/09/18 02:01:48;;;;;;;56.67;8.00;;;28.90;90.10;;;;;;5047140;28;20052;-47
2021/09/18 02:04:15;;;;;;;42.22;8.40;;;28.90;90.00;;;;;;5046682;28;20347;-49
2021/09/18 02:06:41;;;;;;;39.45;6.82;;;28.90;90.10;;;;;;5045537;28;20322;-47
2021/09/18 02:09:08;;;;;;;38.47;6.20;;;28.80;90.30;;;;;;5046496;28;20079;-47
2021/09/18 02:11:35;;;;;;;31.73;5.55;;;28.80;90.00;;;;;;5046806;28;20033;-46
2021/09/18 02:14:01;;;;;;;31.95;5.85;;;28.70;90.00;;;;;;5046824;28;20056;-47
2021/09/18 02:16:28;;;;;;;28.50;4.68;;;28.70;90.00;;;;;;5046646;28;20052;-50
2021/09/18 02:18:55;;;;;;;25.38;5.00;;;28.70;90.00;;;;;;5045340;28;20050;-46
2021/09/18 02:21:22;;;;;;;19.35;4.85;;;28.70;90.00;;;;;;5046717;28;20029;-46
2021/09/18 02:23:48;;;;;;;24.38;4.80;;;28.70;89.90;;;;;;5046519;28;20017;-45
2021/09/18 02:26:16;;;;;;;25.08;5.70;;;28.70;89.90;;;;;;5046641;28;20033;-49
2021/09/18 02:28:42;;;;;;;25.65;5.00;;;28.70;89.80;;;;;;5046228;28;20021;-53
2021/09/18 02:31:09;;;;;;;28.33;5.65;;;28.70;89.70;;;;;;5046599;28;20044;-46
2021/09/18 02:33:36;;;;;;;41.40;5.90;;;28.70;89.70;;;;;;5046344;28;20025;-48
2021/09/18 02:36:03;;;;;;;16.83;4.90;;;28.70;89.70;;;;;;5045914;28;20045;-49
2021/09/18 02:38:30;;;;;;;31.45;5.78;;;28.70;89.80;;;;;;5045046;28;20017;-50
2021/09/18 02:40:56;;;;;;;53.05;7.00;;;28.60;89.70;;;;;;5046286;28;20025;-46
2021/09/18 02:43:23;;;;;;;53.17;7.57;;;28.60;89.80;;;;;;5045990;28;20021;-45
2021/09/18 02:45:50;;;;;;;30.38;5.53;;;28.60;89.60;;;;;;5046164;28;20091;-51
2021/09/18 02:48:16;;;;;;;32.55;5.88;;;28.60;89.70;;;;;;5045971;28;20265;-47
2021/09/18 02:50:43;;;;;;;19.20;5.18;;;28.70;89.70;;;;;;5045784;28;20033;-48
2021/09/18 02:53:10;;;;;;;20.15;4.28;;;28.70;89.60;;;;;;5045954;28;20052;-46
2021/09/18 02:55:37;;;;;;;19.73;4.78;;;28.70;89.50;;;;;;5045911;28;20013;-46
2021/09/18 02:58:04;;;;;;;14.30;4.03;;;28.70;89.50;;;;;;5045696;28;20028;-52
2021/09/18 03:00:30;;;;;;;13.38;3.78;;;28.70;89.50;;;;;;5045862;28;20025;-47
2021/09/18 03:02:57;;;;;;;12.32;3.95;;;28.70;89.60;;;;;;5045807;28;20067;-47
2021/09/18 03:05:24;;;;;;;15.05;4.07;;;28.70;89.70;;;;;;5044790;28;20021;-46
2021/09/18 03:07:50;;;;;;;14.27;4.70;;;28.70;89.50;;;;;;5045481;28;20021;-46
2021/09/18 03:10:17;;;;;;;16.83;6.95;;;28.70;89.50;;;;;;5045755;28;20079;-45
2021/09/18 03:12:43;;;;;;;34.88;21.67;;;28.70;89.50;;;;;;5045908;28;20091;-44
2021/09/18 03:15:11;;;;;;;17.45;12.55;;;28.70;89.50;;;;;;5045641;28;20017;-44
2021/09/18 03:17:38;;;;;;;16.15;10.20;;;28.70;89.40;;;;;;5045813;28;20033;-45
2021/09/18 03:20:06;;;;;;;21.30;9.05;;;28.70;89.60;;;;;;5045272;28;20060;-45
2021/09/18 03:22:32;;;;;;;14.07;8.68;;;28.70;89.80;;;;;;5045244;28;20322;-46
2021/09/18 03:24:59;;;;;;;15.50;8.27;;;28.60;89.80;;;;;;5045324;28;20026;-47
2021/09/18 03:27:25;;;;;;;13.35;6.75;;;28.60;89.80;;;;;;5045582;28;20033;-46
2021/09/18 03:29:52;;;;;;;12.07;6.47;;;28.60;89.70;;;;;;5045165;28;20028;-45
2021/09/18 03:32:19;;;;;;;8.07;5.88;;;28.60;89.80;;;;;;5045630;28;20035;-48
2021/09/18 03:34:45;;;;;;;13.25;6.25;;;28.60;89.80;;;;;;5044996;28;20025;-45
2021/09/18 03:37:12;;;;;;;13.98;5.95;;;28.60;89.80;;;;;;5044974;28;20030;-46
2021/09/18 03:39:38;;;;;;;10.40;5.03;;;28.60;90.00;;;;;;5045086;28;20040;-46
2021/09/18 03:42:05;;;;;;;11.25;4.97;;;28.60;90.00;;;;;;5045337;28;20084;-46
2021/09/18 03:44:32;;;;;;;13.65;5.43;;;28.60;90.00;;;;;;5044987;28;20080;-44
2021/09/18 03:46:58;;;;;;;17.10;5.00;;;28.60;90.00;;;;;;5045192;28;20321;-45
2021/09/18 03:49:25;;;;;;;9.90;4.65;;;28.60;90.00;;;;;;5044954;28;20024;-46
2021/09/18 03:51:52;;;;;;;9.80;5.18;;;28.60;90.00;;;;;;5045019;28;20033;-45
2021/09/18 03:54:18;;;;;;;6.97;4.47;;;28.60;90.00;;;;;;5044797;28;20040;-45
2021/09/18 03:56:45;;;;;;;6.05;5.03;;;28.60;90.00;;;;;;5044918;28;20123;-46
2021/09/18 03:59:12;;;;;;;9.68;4.53;;;28.60;90.10;;;;;;5044583;28;20092;-51
2021/09/18 04:01:38;;;;;;;8.88;4.70;;;28.60;90.10;;;;;;5044890;28;20053;-48
2021/09/18 04:04:05;;;;;;;6.07;4.25;;;28.60;90.10;;;;;;5044646;28;20013;-46
2021/09/18 04:06:31;;;;;;;5.70;4.05;;;28.60;90.10;;;;;;5044311;28;20037;-46
2021/09/18 04:08:58;;;;;;;6.18;4.05;;;28.50;90.10;;;;;;5044394;28;20037;-49
2021/09/18 04:11:24;;;;;;;8.10;4.43;;;28.50;90.30;;;;;;5044566;28;20057;-46
2021/09/18 04:13:51;;;;;;;5.05;3.88;;;28.50;90.20;;;;;;5044319;28;20022;-47
2021/09/18 04:16:21;;;;;;;7.25;3.92;;;28.50;90.30;;;;;;5044455;28;20069;-46
2021/09/18 04:18:49;;;;;;;6.10;3.90;;;28.50;90.40;;;;;;5044419;28;20084;-48
2021/09/18 04:21:15;;;;;;;7.82;4.10;;;28.50;90.40;;;;;;5044364;28;20049;-46
2021/09/18 04:23:42;;;;;;;9.20;4.20;;;28.40;90.60;;;;;;5044292;28;20379;-51
2021/09/18 04:26:09;;;;;;;7.15;4.32;;;28.40;90.60;;;;;;5044423;28;20033;-46
2021/09/18 04:28:36;;;;;;;6.78;4.35;;;28.50;90.60;;;;;;5044014;28;20025;-45
2021/09/18 04:31:02;;;;;;;7.82;4.15;;;28.50;90.60;;;;;;5044270;28;20028;-51
2021/09/18 04:33:29;;;;;;;6.57;3.92;;;28.50;90.50;;;;;;5044256;28;20032;-47
2021/09/18 04:35:55;;;;;;;4.72;3.83;;;28.50;90.60;;;;;;5044023;28;20049;-46
2021/09/18 04:38:22;;;;;;;8.68;4.15;;;28.50;90.60;;;;;;5044057;28;20017;-47
2021/09/18 04:40:49;;;;;;;7.53;4.25;;;28.50;90.50;;;;;;5044088;28;20033;-46
2021/09/18 04:43:15;;;;;;;6.20;4.28;;;28.50;90.50;;;;;;5043871;28;20013;-47
2021/09/18 04:45:42;;;;;;;6.43;3.72;;;28.50;90.50;;;;;;5044050;28;20017;-47
2021/09/18 04:48:08;;;;;;;8.50;4.68;;;28.40;90.50;;;;;;5043979;28;20228;-47
2021/09/18 04:50:35;;;;;;;6.38;4.40;;;28.40;90.60;;;;;;5043720;28;20024;-48
2021/09/18 04:53:02;;;;;;;8.00;4.68;;;28.40;90.60;;;;;;5043857;28;20029;-48
2021/09/18 04:55:28;;;;;;;6.38;4.88;;;28.40;90.50;;;;;;5043929;28;20014;-48
2021/09/18 04:57:55;;;;;;;7.90;4.97;;;28.40;90.50;;;;;;5043610;28;20024;-46
2021/09/18 05:00:21;;;;;;;6.75;4.47;;;28.40;90.40;;;;;;5043757;28;20021;-51
2021/09/18 05:02:48;;;;;;;8.23;5.07;;;28.40;90.40;;;;;;5043739;28;20108;-51
2021/09/18 05:05:15;;;;;;;7.45;4.70;;;28.40;90.40;;;;;;5043636;28;20112;-49
2021/09/18 05:07:41;;;;;;;8.68;4.95;;;28.40;90.30;;;;;;5043523;28;20037;-51
2021/09/18 05:10:08;;;;;;;13.60;4.78;;;28.40;90.30;;;;;;5043576;28;20049;-45
2021/09/18 05:12:35;;;;;;;10.10;4.85;;;28.40;90.30;;;;;;5044137;28;20075;-45
2021/09/18 05:15:02;;;;;;;7.20;4.93;;;28.40;90.30;;;;;;5044171;28;20030;-46
2021/09/18 05:17:29;;;;;;;6.90;4.80;;;28.40;90.20;;;;;;5044056;28;20037;-46
2021/09/18 05:19:55;;;;;;;9.55;6.63;;;28.40;90.20;;;;;;5043669;28;20013;-46
2021/09/18 05:22:22;;;;;;;11.88;8.60;;;28.40;90.30;;;;;;5043928;28;20021;-45
2021/09/18 05:24:48;;;;;;;15.20;9.75;;;28.40;90.20;;;;;;5043541;28;20013;-45
2021/09/18 05:27:15;;;;;;;15.00;9.10;;;28.30;90.30;;;;;;5043979;28;20033;-47
2021/09/18 05:29:43;;;;;;;10.50;8.15;;;28.30;90.30;;;;;;5045855;28;20184;-45
2021/09/18 05:32:11;;;;;;;11.75;7.55;;;28.30;90.20;;;;;;5047814;28;20029;-48
2021/09/18 05:34:39;;;;;;;9.18;6.10;;;28.30;90.10;;;;;;5047429;28;20017;-44
2021/09/18 05:37:05;;;;;;;9.30;6.20;;;28.30;90.10;;;;;;5047542;28;20029;-52
2021/09/18 05:39:32;;;;;;;10.40;5.50;;;28.30;90.10;;;;;;5047262;28;20306;-46
2021/09/18 05:41:59;;;;;;;7.82;6.25;;;28.30;90.10;;;;;;5047669;28;20056;-45
2021/09/18 05:44:26;;;;;;;8.68;7.05;;;28.30;90.10;;;;;;5047119;28;20021;-45
2021/09/18 05:46:52;;;;;;;14.95;8.50;;;28.30;90.10;;;;;;5047468;28;20025;-46
2021/09/18 05:49:19;;;;;;;14.57;9.13;;;28.30;90.10;;;;;;5047266;28;20050;-45
2021/09/18 05:51:45;;;;;;;13.25;10.30;;;28.30;90.20;;;;;;5046934;28;20029;-48
2021/09/18 05:54:12;;;;;;;17.88;12.15;;;28.30;90.20;;;;;;5047048;28;20021;-45
2021/09/18 05:56:38;;;;;;;19.50;11.88;;;28.30;90.20;;;;;;5047205;28;20029;-48
2021/09/18 05:59:05;;;;;;;19.20;12.48;;;28.30;90.20;;;;;;5046887;28;20040;-46
2021/09/18 06:01:31;;;;;;;19.40;13.20;;;28.30;90.20;;;;;;5047107;28;20028;-46
2021/09/18 06:03:58;;;;;;;15.63;12.75;;;28.30;90.20;;;;;;5046965;28;20081;-46
2021/09/18 06:06:25;;;;;;;17.50;11.93;;;28.20;90.20;;;;;;5046530;28;20025;-45
2021/09/18 06:08:51;;;;;;;20.48;12.63;;;28.20;90.20;;;;;;5046745;28;20049;-45
2021/09/18 06:11:18;;;;;;;21.50;12.45;;;28.20;90.20;;;;;;5047003;28;20025;-49
2021/09/18 06:13:44;;;;;;;20.35;13.52;;;28.20;90.20;;;;;;5046833;28;20264;-48
2021/09/18 06:16:11;;;;;;;16.08;12.18;;;28.10;90.20;;;;;;5046778;28;20313;-49
2021/09/18 06:18:37;;;;;;;22.40;11.55;;;28.10;90.20;;;;;;5046670;28;20045;-45
2021/09/18 06:21:06;;;;;;;66.90;15.73;;;28.20;90.30;;;;;;5046492;28;20071;-46
2021/09/18 06:23:37;;;;;;;97.22;15.93;;;28.10;90.30;;;;;;5046481;28;20024;-46
2021/09/18 06:26:07;;;;;;;111.93;16.33;;;28.10;90.60;;;;;;5046571;28;20052;-46
2021/09/18 06:28:34;;;;;;;94.95;14.32;;;28.00;90.50;;;;;;5046311;28;20063;-46
2021/09/18 06:31:01;;;;;;;106.13;15.43;;;28.10;90.40;;;;;;5046521;28;20048;-53
2021/09/18 06:33:28;;;;;;;79.13;13.20;;;28.10;90.40;;;;;;5046381;28;20028;-47
2021/09/18 06:35:55;;;;;;;61.67;11.50;;;28.00;90.40;;;;;;5045971;28;20096;-46
2021/09/18 06:38:22;;;;;;;71.15;10.65;;;28.00;90.40;;;;;;5046212;28;20028;-46
2021/09/18 06:40:54;;;;;;;64.30;9.75;;;28.00;90.30;;;;;;5045108;28;20029;-45
2021/09/18 06:43:22;;;;;;;59.08;11.38;;;28.00;90.40;;;;;;5046044;28;20033;-48
2021/09/18 06:45:49;;;;;;;99.35;14.50;;;28.00;90.40;;;;;;5046192;28;20025;-52
2021/09/18 06:48:17;;;;;;;96.07;13.13;;;27.80;90.40;;;;;;5046243;28;20052;-46
2021/09/18 06:50:44;;;;;;;64.80;11.40;;;27.80;90.50;;;;;;5045944;28;20041;-44
2021/09/18 06:53:11;;;;;;;89.05;11.95;;;27.80;90.40;;;;;;5046134;28;20021;-44
2021/09/18 06:55:38;;;;;;;110.38;14.90;;;27.80;90.40;;;;;;5046178;28;20206;-46
2021/09/18 06:58:05;;;;;;;115.63;16.42;;;27.80;90.50;;;;;;5045753;28;20028;-49
2021/09/18 07:00:32;;;;;;;109.95;14.80;;;27.80;90.60;;;;;;5045773;28;20028;-45
2021/09/18 07:02:58;;;;;;;126.57;14.32;;;27.70;90.60;;;;;;5045792;28;20262;-49
2021/09/18 07:05:25;;;;;;;113.82;14.45;;;27.80;90.60;;;;;;5045531;28;20229;-46
2021/09/18 07:07:51;;;;;;;94.70;13.02;;;27.80;90.60;;;;;;5045488;28;20032;-47
2021/09/18 07:10:18;;;;;;;82.00;14.48;;;27.80;90.60;;;;;;5045658;28;20094;-46
2021/09/18 07:12:44;;;;;;;95.82;14.10;;;27.80;90.70;;;;;;5046000;28;20036;-46
2021/09/18 07:15:11;;;;;;;82.80;12.77;;;27.80;90.70;;;;;;5045787;28;20021;-51
2021/09/18 07:17:38;;;;;;;116.38;13.55;;;27.80;90.80;;;;;;5045897;28;20061;-49
2021/09/18 07:20:06;;;;;;;96.45;14.02;;;27.80;90.90;;;;;;5045355;28;20045;-45
2021/09/18 07:22:32;;;;;;;70.75;11.88;;;27.80;91.00;;;;;;5045267;28;20033;-45
2021/09/18 07:24:59;;;;;;;49.83;10.77;;;27.80;91.00;;;;;;5045676;28;20018;-49
2021/09/18 07:27:26;;;;;;;59.40;11.27;;;27.80;91.00;;;;;;5045557;28;20223;-51
2021/09/18 07:29:53;;;;;;;83.10;13.82;;;27.80;91.10;;;;;;5045350;28;20029;-46
2021/09/18 07:32:20;;;;;;;73.22;12.65;;;27.80;91.20;;;;;;5045613;28;20036;-48
2021/09/18 07:34:47;;;;;;;54.60;10.27;;;27.80;91.20;;;;;;5045078;28;20021;-46
2021/09/18 07:37:13;;;;;;;59.05;10.70;;;27.80;91.30;;;;;;5044908;28;20219;-46
2021/09/18 07:39:40;;;;;;;64.25;11.15;;;27.80;91.30;;;;;;5045184;28;20184;-46
2021/09/18 07:42:07;;;;;;;50.33;9.98;;;27.80;91.30;;;;;;5045288;28;20088;-48
2021/09/18 07:44:33;;;;;;;39.85;8.95;;;27.80;91.40;;;;;;5045087;28;20021;-53
2021/09/18 07:47:00;;;;;;;41.55;9.15;;;27.80;91.40;;;;;;5045316;28;20032;-46
2021/09/18 07:49:26;;;;;;;40.83;9.10;;;27.80;91.40;;;;;;5044813;28;20025;-46
2021/09/18 07:51:55;;;;;;;45.22;9.52;;;27.80;91.40;;;;;;5045135;28;20037;-46
2021/09/18 07:54:22;;;;;;;37.80;8.60;;;27.80;91.60;;;;;;5045072;28;20029;-46
2021/09/18 07:56:49;;;;;;;26.60;7.05;;;27.80;91.70;;;;;;5044807;28;20328;-47
2021/09/18 07:59:15;;;;;;;28.85;7.10;;;27.80;91.70;;;;;;5044775;28;20335;-47
2021/09/18 08:01:42;;;;;;;20.70;6.90;;;27.80;91.70;;;;;;5044972;28;20033;-45
2021/09/18 08:04:08;;;;;;;22.17;6.85;;;27.70;91.80;;;;;;5044588;28;20028;-48
2021/09/18 08:06:36;;;;;;;20.10;6.93;;;27.70;91.90;;;;;;5044754;28;20079;-47
2021/09/18 08:09:06;;;;;;;11.48;5.57;;;27.60;92.00;;;;;;5044431;28;20384;-49
2021/09/18 08:11:33;;;;;;;15.32;5.75;;;27.60;91.90;;;;;;5044736;28;20040;-52
2021/09/18 08:14:02;;;;;;;10.15;5.15;;;27.70;91.90;;;;;;5044457;28;20017;-52
2021/09/18 08:16:30;;;;;;;17.13;4.95;;;27.70;91.80;;;;;;5044499;28;20317;-44
2021/09/18 08:18:56;;;;;;;10.07;4.60;;;27.70;91.70;;;;;;5044330;28;20214;-45
2021/09/18 08:21:23;;;;;;;13.50;7.45;;;27.70;91.50;;;;;;5044502;28;20053;-46
2021/09/18 08:23:50;;;;;;;12.38;6.90;;;27.70;91.40;;;;;;5044380;28;20088;-46
2021/09/18 08:26:16;;;;;;;13.43;7.10;;;27.70;91.40;;;;;;5044306;28;20029;-49
2021/09/18 08:28:43;;;;;;;12.68;7.05;;;27.70;91.50;;;;;;5044224;28;20109;-48
2021/09/18 08:31:09;;;;;;;10.63;6.65;;;27.70;91.40;;;;;;5044354;28;20029;-47
2021/09/18 08:33:36;;;;;;;10.48;6.07;;;27.70;91.30;;;;;;5044239;28;20250;-49
2021/09/18 08:36:03;;;;;;;14.20;7.70;;;27.70;91.30;;;;;;5044092;28;20550;-46
2021/09/18 08:38:29;;;;;;;11.52;6.95;;;27.70;91.30;;;;;;5044181;28;20059;-46
2021/09/18 08:40:56;;;;;;;9.27;5.60;;;27.60;91.20;;;;;;5044076;28;20033;-46
2021/09/18 08:43:23;;;;;;;8.57;5.75;;;27.60;91.20;;;;;;5043866;28;20088;-46
2021/09/18 08:45:49;;;;;;;7.68;5.10;;;27.70;91.10;;;;;;5044028;28;20052;-46
2021/09/18 08:48:17;;;;;;;11.43;5.28;;;27.70;91.00;;;;;;5043934;28;20024;-48
2021/09/18 08:50:44;;;;;;;8.45;5.55;;;27.70;91.00;;;;;;5043758;28;20065;-51
2021/09/18 08:53:11;;;;;;;7.32;5.70;;;27.60;91.00;;;;;;5043882;28;20144;-48
2021/09/18 08:55:37;;;;;;;8.48;5.50;;;27.50;91.10;;;;;;5043830;28;20021;-48
2021/09/18 08:58:04;;;;;;;10.18;6.18;;;27.50;91.00;;;;;;5043622;28;20329;-45
2021/09/18 09:00:33;;;;;;;8.15;6.47;;;27.60;91.00;;;;;;5043774;28;20025;-45
2021/09/18 09:03:08;;;;;;;7.80;6.85;;;27.60;91.00;;;;;;5043488;28;20021;-45
2021/09/18 09:05:37;;;;;;;11.40;5.97;;;27.50;90.90;;;;;;5043379;28;20214;-51
2021/09/18 09:08:15;;;;;;;9.75;6.40;;;27.50;90.90;;;;;;5043437;28;20028;-54
2021/09/18 09:10:46;;;;;;;10.30;7.22;;;27.60;90.90;;;;;;5043556;28;20072;-46
2021/09/18 09:13:18;;;;;;;8.50;6.32;;;27.60;90.90;;;;;;5043699;28;20051;-47
2021/09/18 09:15:46;;;;;;;9.25;6.72;;;27.60;90.90;;;;;;5043572;28;20087;-49
2021/09/18 09:18:26;;;;;;;9.13;6.28;;;27.60;90.90;;;;;;5043557;28;20033;-47
2021/09/18 09:21:20;;;;;;;8.88;5.63;;;27.60;90.90;;;;;;5043646;28;20017;-46
2021/09/18 09:24:03;;;;;;;10.23;6.13;;;27.60;90.90;;;;;;5043552;28;20022;-46
2021/09/18 09:26:30;;;;;;;9.55;5.35;;;27.60;90.90;;;;;;5043556;28;20025;-50
2021/09/18 09:28:57;;;;;;;8.55;5.05;;;27.60;90.90;;;;;;5043722;28;20036;-47
2021/09/18 09:31:31;;;;;;;6.57;5.07;;;27.60;91.00;;;;;;5043745;28;20061;-47
2021/09/18 09:34:01;;;;;;;8.10;4.90;;;27.50;91.00;;;;;;5043482;28;20040;-46
2021/09/18 09:36:34;;;;;;;7.05;5.45;;;27.50;91.10;;;;;;5043554;28;20033;-49
2021/09/18 09:39:04;;;;;;;10.55;6.05;;;27.50;91.20;;;;;;5043384;28;20026;-46
2021/09/18 09:41:37;;;;;;;7.60;6.15;;;27.60;91.20;;;;;;5043635;28;20018;-47
2021/09/18 09:44:08;;;;;;;8.23;5.13;;;27.50;91.20;;;;;;5043387;28;20088;-50
2021/09/18 09:46:35;;;;;;;8.45;6.03;;;27.50;91.10;;;;;;5043574;28;20084;-47
2021/09/18 09:49:13;;;;;;;5.88;4.93;;;27.50;91.10;;;;;;5043338;28;20029;-49
2021/09/18 09:51:41;;;;;;;7.72;5.72;;;27.50;91.10;;;;;;5043103;28;20322;-47
2021/09/18 09:54:25;;;;;;;9.73;4.88;;;27.50;91.00;;;;;;5043357;28;20113;-46
2021/09/18 09:57:13;;;;;;;9.27;4.90;;;27.50;91.00;;;;;;5043414;28;20076;-46
2021/09/18 09:59:40;;;;;;;10.68;4.97;;;27.50;91.00;;;;;;5043364;28;20032;-46
2021/09/18 10:02:10;;;;;;;6.78;4.65;;;27.50;90.90;;;;;;5043508;28;20282;-46
2021/09/18 10:04:37;;;;;;;10.57;4.78;;;27.50;90.90;;;;;;5043493;28;20214;-52
2021/09/18 10:07:06;;;;;;;8.98;5.47;;;27.40;90.90;;;;;;5043428;28;20025;-47
2021/09/18 10:09:35;;;;;;;8.35;4.85;;;27.40;90.90;;;;;;5042889;28;20073;-45
2021/09/18 10:12:03;;;;;;;7.70;4.95;;;27.40;90.80;;;;;;5043531;28;20088;-46
2021/09/18 10:14:31;;;;;;;8.77;5.10;;;27.40;90.80;;;;;;5043393;28;20045;-47
2021/09/18 10:17:00;;;;;;;7.88;5.05;;;27.40;90.80;;;;;;5046765;28;20037;-45
2021/09/18 10:20:03;;;;;;;9.32;5.15;;;27.40;91.00;;;;;;5046976;28;20306;-49
2021/09/18 10:25:25;;;;;;;9.85;5.30;;;27.40;90.90;;;;;;5046404;28;20016;-47
2021/09/18 10:28:09;;;;;;;10.63;5.28;;;27.40;91.20;;;;;;5046494;28;20091;-45
2021/09/18 10:30:49;;;;;;;10.00;4.80;;;27.40;90.90;;;;;;5046192;28;20092;-45
2021/09/18 10:33:39;;;;;;;8.07;4.82;;;27.40;90.90;;;;;;5046417;28;20013;-50
2021/09/18 10:36:09;;;;;;;8.35;5.57;;;27.40;90.80;;;;;;5046270;28;20033;-50
2021/09/18 10:38:39;;;;;;;10.88;5.88;;;27.30;90.80;;;;;;5046596;28;20302;-45
2021/09/18 10:41:15;;;;;;;8.68;5.57;;;27.30;90.80;;;;;;5046164;28;20215;-45
2021/09/18 10:43:45;;;;;;;10.23;5.70;;;27.30;90.80;;;;;;5046180;28;20024;-46
2021/09/18 10:46:41;;;;;;;10.10;5.10;;;27.30;90.80;;;;;;5046252;28;20033;-45
2021/09/18 10:49:30;;;;;;;11.13;5.60;;;27.30;90.70;;;;;;5046295;28;20245;-54
2021/09/18 10:52:28;;;;;;;10.00;6.40;;;27.40;90.80;;;;;;5046539;28;20074;-51
2021/09/18 10:55:10;;;;;;;14.80;6.72;;;27.30;90.70;;;;;;5046125;28;20057;-50
2021/09/18 10:57:48;;;;;;;10.40;6.30;;;27.30;90.60;;;;;;5046369;28;20328;-46
2021/09/18 11:00:23;;;;;;;12.43;6.30;;;27.30;90.60;;;;;;5045902;28;20056;-45
2021/09/18 11:02:54;;;;;;;12.23;6.07;;;27.30;90.50;;;;;;5045881;28;20025;-44
2021/09/18 11:05:27;;;;;;;19.30;6.88;;;27.30;90.50;;;;;;5045659;28;20017;-46
2021/09/18 11:07:58;;;;;;;20.88;6.68;;;27.30;90.50;;;;;;5045667;28;20060;-47
2021/09/18 11:10:25;;;;;;;17.92;7.32;;;27.30;90.50;;;;;;5045490;28;20068;-44
2021/09/18 11:13:10;;;;;;;18.25;6.78;;;27.30;90.50;;;;;;5045927;28;20044;-47
2021/09/18 11:15:53;;;;;;;16.70;7.05;;;27.30;90.50;;;;;;5045561;28;20314;-51
2021/09/18 11:18:35;;;;;;;12.45;6.15;;;27.30;90.50;;;;;;5045686;28;20036;-51
2021/09/18 11:21:11;;;;;;;13.63;6.60;;;27.30;90.40;;;;;;5045692;28;20201;-47
2021/09/18 11:23:59;;;;;;;14.30;6.97;;;27.30;90.40;;;;;;5045450;28;20021;-47
2021/09/18 11:26:30;;;;;;;15.38;6.78;;;27.30;90.40;;;;;;5044720;28;20321;-48
2021/09/18 11:29:07;;;;;;;10.17;6.50;;;27.30;90.40;;;;;;5045388;28;20322;-47
2021/09/18 11:31:33;;;;;;;13.55;6.35;;;27.30;90.40;;;;;;5045348;28;20259;-48
2021/09/18 11:34:00;;;;;;;18.23;6.00;;;27.30;90.40;;;;;;5045328;28;20318;-50
2021/09/18 11:36:27;;;;;;;15.10;6.07;;;27.30;90.40;;;;;;5045277;28;20033;-46
2021/09/18 11:38:53;;;;;;;9.15;6.47;;;27.30;90.40;;;;;;5045001;28;20021;-47
2021/09/18 11:41:20;;;;;;;15.25;7.15;;;27.30;90.50;;;;;;5045314;28;20290;-48
2021/09/18 11:43:47;;;;;;;13.68;6.40;;;27.30;90.50;;;;;;5043920;28;20030;-49
2021/09/18 11:46:32;;;;;;;10.63;6.70;;;27.30;90.40;;;;;;5045150;28;20071;-49
2021/09/18 11:49:03;;;;;;;14.70;6.53;;;27.30;90.40;;;;;;5045042;28;20029;-44
2021/09/18 11:51:30;;;;;;;13.13;6.70;;;27.30;90.50;;;;;;5045457;28;20080;-47
2021/09/18 11:54:08;;;;;;;12.35;6.90;;;27.30;90.50;;;;;;5044890;28;20044;-45
2021/09/18 11:56:35;;;;;;;13.45;7.05;;;27.30;90.60;;;;;;5044918;28;20325;-45
2021/09/18 11:59:09;;;;;;;16.83;6.97;;;27.30;90.60;;;;;;5044555;28;20221;-46
2021/09/18 12:01:36;;;;;;;17.48;6.75;;;27.30;90.60;;;;;;5044894;28;20064;-46
2021/09/18 12:04:04;;;;;;;14.60;6.75;;;27.30;90.60;;;;;;5044609;28;20052;-50
2021/09/18 12:06:31;;;;;;;15.10;6.68;;;27.40;90.70;;;;;;5044544;28;20087;-46
2021/09/18 12:08:58;;;;;;;15.32;6.40;;;27.40;90.70;;;;;;5044350;28;20081;-46
2021/09/18 12:11:25;;;;;;;13.30;6.20;;;27.40;90.80;;;;;;5044802;28;20033;-45
2021/09/18 12:13:55;;;;;;;13.63;6.15;;;27.40;90.70;;;;;;5044294;28;20040;-45
2021/09/18 12:16:24;;;;;;;11.35;6.80;;;27.40;90.80;;;;;;5044429;28;20328;-48
2021/09/18 12:18:53;;;;;;;15.52;6.45;;;27.40;90.80;;;;;;5044386;28;20096;-46
2021/09/18 12:21:23;;;;;;;13.23;6.22;;;27.40;90.90;;;;;;5044222;28;20094;-51
2021/09/18 12:24:01;;;;;;;13.23;6.40;;;27.40;90.90;;;;;;5044102;28;20025;-46
2021/09/18 12:26:30;;;;;;;14.85;6.20;;;27.40;90.90;;;;;;5044210;28;20080;-50
2021/09/18 12:29:17;;;;;;;17.13;6.82;;;27.40;90.90;;;;;;5044202;28;20075;-50
2021/09/18 12:31:47;;;;;;;16.15;7.20;;;27.40;91.10;;;;;;5044369;28;20302;-46
2021/09/18 12:34:17;;;;;;;19.50;6.40;;;27.40;91.10;;;;;;5044015;28;20036;-46
2021/09/18 12:36:45;;;;;;;16.98;6.88;;;27.40;91.10;;;;;;5044233;28;20021;-46
2021/09/18 12:39:12;;;;;;;18.85;7.15;;;27.40;91.20;;;;;;5043013;28;20040;-47
2021/09/18 12:41:41;;;;;;;18.20;7.07;;;27.40;91.20;;;;;;5044200;28;20293;-46
2021/09/18 12:44:16;;;;;;;18.40;7.30;;;27.40;91.60;;;;;;5043895;28;20021;-48
2021/09/18 12:46:45;;;;;;;19.40;7.65;;;27.40;91.30;;;;;;5044114;28;20029;-52
2021/09/18 12:49:12;;;;;;;13.77;7.20;;;27.40;91.20;;;;;;5043913;28;20032;-51